createdAt,value
2022-08-05T00:00:52.398Z,9.25
2022-08-05T00:03:57.250Z,7.25
2022-08-05T00:07:00.446Z,13.20
2022-08-05T00:10:27.070Z,7.70
2022-08-05T00:13:38.285Z,7.43
2022-08-05T00:16:53.702Z,8.55
2022-08-05T00:20:02.694Z,7.15
2022-08-05T00:23:13.025Z,7.00
2022-08-05T00:26:16.640Z,7.77
2022-08-05T00:29:22.837Z,8.60
2022-08-05T00:32:28.597Z,9.82
2022-08-05T00:35:33.184Z,9.15
2022-08-05T00:38:36.515Z,6.82
2022-08-05T00:41:51.875Z,9.20
2022-08-05T00:44:58.645Z,8.23
2022-08-05T00:48:05.757Z,8.20
2022-08-05T00:51:51.505Z,7.30
2022-08-05T00:54:32.182Z,7.25
2022-08-05T00:57:55.573Z,8.90
2022-08-05T01:00:58.185Z,8.57
2022-08-05T01:04:01.382Z,8.65
2022-08-05T01:07:05.209Z,8.00
2022-08-05T01:10:09.018Z,9.48
2022-08-05T01:13:58.030Z,8.30
2022-08-05T01:17:11.107Z,8.30
2022-08-05T01:20:20.461Z,7.65
2022-08-05T01:23:43.857Z,8.18
2022-08-05T01:26:59.551Z,7.47
2022-08-05T01:30:04.051Z,8.17
2022-08-05T01:33:09.515Z,8.03
2022-08-05T01:36:16.254Z,8.63
2022-08-05T01:39:46.196Z,8.00
2022-08-05T01:42:42.803Z,9.68
2022-08-05T01:45:45.752Z,10.23
2022-08-05T01:48:59.880Z,8.17
2022-08-05T01:52:17.589Z,8.48
2022-08-05T01:55:22.413Z,9.40
2022-08-05T01:58:40.504Z,9.80
2022-08-05T02:01:47.876Z,10.57
2022-08-05T02:04:51.935Z,7.57
2022-08-05T02:08:00.399Z,9.75
2022-08-05T02:11:11.809Z,8.52
2022-08-05T02:14:21.058Z,10.23
2022-08-05T02:18:28.495Z,12.27
2022-08-05T02:20:58.690Z,8.77
2022-08-05T02:24:06.391Z,10.40
2022-08-05T02:27:10.670Z,11.20
2022-08-05T02:30:13.968Z,10.52
2022-08-05T02:33:24.478Z,10.17
2022-08-05T02:36:48.824Z,9.57
2022-08-05T02:39:51.843Z,9.82
2022-08-05T02:42:55.329Z,9.40
2022-08-05T02:45:58.301Z,9.07
2022-08-05T02:49:04.196Z,9.53
2022-08-05T02:52:30.261Z,10.57
2022-08-05T02:55:55.099Z,9.43
2022-08-05T02:58:56.750Z,10.68
2022-08-05T03:02:01.208Z,9.43
2022-08-05T03:05:04.560Z,11.37
2022-08-05T03:08:08.853Z,11.47
2022-08-05T03:11:54.713Z,9.65
2022-08-05T03:14:45.962Z,12.30
2022-08-05T03:17:49.307Z,8.50
2022-08-05T03:20:57.260Z,10.90
2022-08-05T03:24:00.813Z,11.00
2022-08-05T03:27:06.640Z,12.00
2022-08-05T03:30:10.331Z,10.80
2022-08-05T03:33:13.387Z,11.00
2022-08-05T03:36:16.800Z,11.33
2022-08-05T03:39:38.202Z,11.27
2022-08-05T03:42:56.361Z,12.45
2022-08-05T03:45:59.324Z,9.75
2022-08-05T03:49:03.020Z,10.35
2022-08-05T03:52:38.563Z,9.47
2022-08-05T03:56:04.181Z,10.27
2022-08-05T03:59:06.364Z,11.25
2022-08-05T04:02:13.410Z,11.35
2022-08-05T04:05:20.604Z,8.48
2022-08-05T04:08:35.340Z,9.43
2022-08-05T04:11:47.410Z,9.03
2022-08-05T04:14:54.236Z,13.73
2022-08-05T04:18:03.891Z,13.93
2022-08-05T04:21:11.051Z,9.68
2022-08-05T04:24:19.310Z,11.03
2022-08-05T04:27:41.908Z,11.30
2022-08-05T04:30:47.321Z,10.63
2022-08-05T04:34:17.404Z,11.07
2022-08-05T04:37:14.115Z,10.90
2022-08-05T04:40:19.294Z,12.43
2022-08-05T04:43:22.725Z,11.47
2022-08-05T04:46:29.024Z,10.63
2022-08-05T04:49:39.105Z,10.77
2022-08-05T04:52:54.986Z,12.07
2022-08-05T04:56:34.017Z,13.07
2022-08-05T04:59:38.327Z,10.70
2022-08-05T05:02:43.107Z,12.18
2022-08-05T05:06:40.280Z,14.15
2022-08-05T05:09:13.249Z,11.57
2022-08-05T05:12:17.401Z,9.47
2022-08-05T05:15:56.891Z,8.83
2022-08-05T05:19:02.583Z,8.32
2022-08-05T05:22:22.816Z,13.32
2022-08-05T05:25:40.233Z,10.88
2022-08-05T05:28:44.874Z,8.93
2022-08-05T05:31:48.143Z,6.87
2022-08-05T05:34:52.358Z,8.43
2022-08-05T05:37:59.954Z,7.55
2022-08-05T05:41:03.624Z,8.13
2022-08-05T05:44:36.923Z,7.57
2022-08-05T05:48:06.370Z,7.17
2022-08-05T05:50:57.844Z,7.03
2022-08-05T05:54:00.941Z,8.27
2022-08-05T05:57:04.004Z,8.60
2022-08-05T06:00:19.591Z,7.57
2022-08-05T06:03:40.027Z,9.93
2022-08-05T06:06:47.536Z,9.32
2022-08-05T06:10:01.350Z,8.18
2022-08-05T06:13:07.638Z,6.40
2022-08-05T06:16:29.806Z,9.77
2022-08-05T06:19:35.696Z,7.60
2022-08-05T06:22:40.522Z,6.45
2022-08-05T06:26:13.764Z,6.22
2022-08-05T06:29:25.248Z,10.55
2022-08-05T06:32:31.387Z,8.13
2022-08-05T06:36:07.318Z,8.10
2022-08-05T06:38:57.379Z,7.32
2022-08-05T06:42:03.997Z,9.40
2022-08-05T06:45:09.163Z,8.07
2022-08-05T06:48:55.527Z,9.20
2022-08-05T06:51:35.373Z,8.83
2022-08-05T06:54:43.646Z,10.35
2022-08-05T06:58:02.640Z,6.95
2022-08-05T07:01:14.703Z,10.80
2022-08-05T07:04:23.817Z,9.43
2022-08-05T07:07:35.618Z,9.67
2022-08-05T07:10:52.729Z,10.13
2022-08-05T07:14:20.086Z,10.85
2022-08-05T07:17:59.467Z,11.80
2022-08-05T07:20:46.253Z,8.83
2022-08-05T07:23:50.588Z,8.40
2022-08-05T07:26:55.347Z,10.20
2022-08-05T07:30:25.484Z,8.80
2022-08-05T07:33:37.184Z,12.82
2022-08-05T07:36:40.647Z,10.03
2022-08-05T07:40:26.012Z,7.20
2022-08-05T07:43:20.092Z,9.40
2022-08-05T07:46:27.579Z,9.48
2022-08-05T07:49:30.523Z,7.63
2022-08-05T07:52:35.942Z,7.00
2022-08-05T07:55:44.381Z,8.60
2022-08-05T07:59:04.015Z,8.10
2022-08-05T08:02:10.662Z,7.93
2022-08-05T08:05:19.327Z,10.40
2022-08-05T08:08:22.302Z,10.63
2022-08-05T08:11:27.478Z,10.23
2022-08-05T08:14:48.197Z,8.77
2022-08-05T08:17:53.171Z,6.75
2022-08-05T08:21:01.925Z,6.72
2022-08-05T08:24:13.549Z,7.40
2022-08-05T08:27:17.172Z,9.93
2022-08-05T08:30:34.145Z,7.85
2022-08-05T08:33:39.446Z,8.48
2022-08-05T08:36:50.510Z,7.10
2022-08-05T08:39:55.691Z,6.63
2022-08-05T08:42:58.786Z,8.83
2022-08-05T08:46:21.788Z,5.95
2022-08-05T08:50:22.915Z,7.30
2022-08-05T08:52:56.871Z,12.13
2022-08-05T08:56:03.691Z,7.63
2022-08-05T08:59:14.882Z,8.07
2022-08-05T09:02:26.626Z,6.78
2022-08-05T09:05:38.965Z,7.20
2022-08-05T09:08:52.993Z,7.00
2022-08-05T09:12:01.251Z,8.87
2022-08-05T09:15:12.233Z,7.40
2022-08-05T09:18:18.054Z,7.82
2022-08-05T09:22:21.852Z,10.88
2022-08-05T09:25:00.830Z,7.55
2022-08-05T09:28:31.991Z,9.03
2022-08-05T09:32:42.017Z,9.20
2022-08-05T09:35:00.823Z,6.63
2022-08-05T09:38:13.030Z,7.65
2022-08-05T09:41:21.492Z,6.70
2022-08-05T09:44:38.147Z,6.57
2022-08-05T09:47:49.018Z,8.03
2022-08-05T09:51:15.316Z,7.82
2022-08-05T09:54:21.381Z,6.68
2022-08-05T09:57:47.101Z,8.70
2022-08-05T10:01:13.489Z,8.90
2022-08-05T10:04:18.561Z,7.67
2022-08-05T10:08:35.972Z,7.65
2022-08-05T10:11:31.224Z,7.18
2022-08-05T10:14:38.212Z,7.22
2022-08-05T10:17:47.402Z,7.50
2022-08-05T10:21:08.597Z,6.50
2022-08-05T10:24:21.620Z,11.32
2022-08-05T10:28:09.067Z,8.27
2022-08-05T10:32:48.002Z,7.32
2022-08-05T10:34:42.359Z,13.37
2022-08-05T10:37:45.321Z,6.97
2022-08-05T10:40:58.197Z,6.68
2022-08-05T10:44:07.267Z,6.68
2022-08-05T10:47:26.897Z,9.27
2022-08-05T10:50:37.143Z,8.13
2022-08-05T10:53:54.471Z,7.33
2022-08-05T10:56:57.618Z,6.15
2022-08-05T11:00:19.251Z,6.57
2022-08-05T11:03:26.960Z,7.55
2022-08-05T11:06:31.137Z,8.23
2022-08-05T11:09:50.516Z,7.33
2022-08-05T11:13:07.472Z,6.18
2022-08-05T11:16:47.895Z,6.38
2022-08-05T11:20:11.054Z,7.53
2022-08-05T11:24:04.264Z,7.87
2022-08-05T11:27:50.182Z,7.37
2022-08-05T11:30:58.541Z,7.70
2022-08-05T11:34:06.508Z,7.13
2022-08-05T11:38:28.890Z,6.13
2022-08-05T11:41:12.837Z,9.03
2022-08-05T11:44:40.593Z,7.03
2022-08-05T11:47:48.425Z,7.65
2022-08-05T11:50:52.642Z,9.47
2022-08-05T11:53:56.233Z,7.13
2022-08-05T11:57:00.703Z,6.25
2022-08-05T12:00:27.540Z,6.40
2022-08-05T12:03:41.816Z,5.93
2022-08-05T12:06:48.668Z,7.40
2022-08-05T12:09:55.108Z,7.40
2022-08-05T12:13:04.692Z,9.20
2022-08-05T12:16:20.262Z,8.17
2022-08-05T12:20:27.527Z,9.13
2022-08-05T12:22:51.942Z,6.75
2022-08-05T12:25:57.000Z,9.02
2022-08-05T12:29:01.507Z,8.35
2022-08-05T12:32:09.481Z,6.80
2022-08-05T12:35:16.797Z,9.75
2022-08-05T12:38:30.239Z,8.10
2022-08-05T12:41:35.963Z,7.55
2022-08-05T12:44:47.556Z,6.57
2022-08-05T12:48:01.764Z,8.35
2022-08-05T12:52:10.339Z,9.32
2022-08-05T12:54:41.081Z,6.90
2022-08-05T12:58:39.847Z,7.45
2022-08-05T13:02:02.521Z,6.93
2022-08-05T13:04:34.756Z,6.40
2022-08-05T13:08:02.061Z,7.45
2022-08-05T13:11:07.944Z,8.17
2022-08-05T13:14:24.971Z,6.82
2022-08-05T13:17:41.689Z,7.05
2022-08-05T13:20:45.534Z,9.15
2022-08-05T13:23:50.783Z,9.63
2022-08-05T13:26:55.278Z,8.32
2022-08-05T13:29:59.536Z,7.25
2022-08-05T13:34:23.128Z,7.95
2022-08-05T13:36:45.218Z,8.87
2022-08-05T13:40:14.140Z,7.90
2022-08-05T13:43:12.456Z,8.35
2022-08-05T13:46:16.264Z,7.88
2022-08-05T13:49:19.459Z,6.65
2022-08-05T13:52:29.228Z,6.93
2022-08-05T13:55:41.033Z,6.70
2022-08-05T13:58:53.098Z,9.55
2022-08-05T14:01:59.465Z,8.98
2022-08-05T14:05:12.125Z,8.13
2022-08-05T14:08:20.748Z,6.83
2022-08-05T14:11:31.349Z,8.30
2022-08-05T14:14:34.413Z,9.55
2022-08-05T14:17:37.371Z,7.60
2022-08-05T14:20:40.450Z,7.25
2022-08-05T14:23:50.009Z,8.07
2022-08-05T14:27:15.495Z,8.07
2022-08-05T14:30:20.284Z,7.35
2022-08-05T14:33:24.576Z,7.53
2022-08-05T14:36:27.547Z,8.38
2022-08-05T14:39:30.540Z,6.80
2022-08-05T14:42:53.170Z,6.83
2022-08-05T14:45:56.150Z,8.13
2022-08-05T14:49:03.477Z,7.63
2022-08-05T14:52:10.661Z,6.97
2022-08-05T14:55:21.477Z,7.10
2022-08-05T14:58:24.547Z,6.13
2022-08-05T15:01:49.081Z,7.72
2022-08-05T15:04:50.632Z,7.00
2022-08-05T15:08:12.406Z,6.82
2022-08-05T15:11:16.640Z,7.20
2022-08-05T15:14:33.306Z,6.63
2022-08-05T15:17:46.123Z,8.35
2022-08-05T15:20:54.134Z,7.15
2022-08-05T15:23:57.134Z,8.80
2022-08-05T15:27:00.987Z,7.90
2022-08-05T15:30:04.502Z,6.67
2022-08-05T15:33:07.864Z,6.38
2022-08-05T15:36:16.821Z,6.57
2022-08-05T15:41:01.806Z,6.47
2022-08-05T15:42:55.277Z,7.07
2022-08-05T15:46:01.647Z,8.10
2022-08-05T15:49:10.451Z,7.90
2022-08-05T15:52:29.060Z,7.88
2022-08-05T15:56:02.183Z,8.57
2022-08-05T15:58:56.117Z,7.73
2022-08-05T16:01:59.551Z,7.20
2022-08-05T16:05:05.487Z,8.18
2022-08-05T16:08:16.157Z,6.72
2022-08-05T16:11:21.046Z,6.30
2022-08-05T16:14:42.679Z,7.53
2022-08-05T16:17:57.300Z,7.90
2022-08-05T16:21:04.647Z,6.40
2022-08-05T16:24:20.573Z,7.63
2022-08-05T16:27:32.074Z,8.65
2022-08-05T16:30:54.132Z,9.07
2022-08-05T16:33:57.145Z,7.40
2022-08-05T16:37:00.103Z,6.22
2022-08-05T16:40:07.103Z,8.43
2022-08-05T16:43:16.587Z,7.65
2022-08-05T16:46:23.752Z,9.50
2022-08-05T16:49:27.143Z,7.33
2022-08-05T16:52:33.376Z,6.75
2022-08-05T16:55:46.874Z,8.85
2022-08-05T16:58:50.439Z,8.48
2022-08-05T17:01:55.901Z,7.87
2022-08-05T17:04:59.293Z,12.70
2022-08-05T17:08:02.726Z,8.95
2022-08-05T17:11:05.819Z,7.78
2022-08-05T17:14:13.021Z,8.30
2022-08-05T17:17:42.334Z,7.87
2022-08-05T17:20:45.818Z,8.20
2022-08-05T17:24:05.571Z,12.23
2022-08-05T17:27:11.873Z,7.63
2022-08-05T17:30:28.872Z,8.60
2022-08-05T17:33:38.820Z,11.10
2022-08-05T17:36:51.005Z,10.20
2022-08-05T17:39:55.218Z,7.78
2022-08-05T17:42:59.153Z,10.30
2022-08-05T17:46:02.105Z,7.72
2022-08-05T17:49:05.280Z,8.33
2022-08-05T17:52:09.912Z,7.47
2022-08-05T17:55:14.910Z,7.45
2022-08-05T17:58:21.597Z,7.30
2022-08-05T18:01:47.223Z,11.02
2022-08-05T18:04:55.031Z,8.70
2022-08-05T18:07:58.243Z,8.27
2022-08-05T18:11:01.272Z,9.60
2022-08-05T18:14:13.518Z,8.10
2022-08-05T18:18:00.354Z,6.97
2022-08-05T18:20:46.922Z,8.73
2022-08-05T18:23:53.851Z,10.00
2022-08-05T18:26:57.211Z,9.15
2022-08-05T18:30:01.124Z,11.85
2022-08-05T18:33:04.209Z,9.07
2022-08-05T18:36:15.093Z,11.43
2022-08-05T18:39:42.477Z,10.90
2022-08-05T18:42:41.989Z,10.73
2022-08-05T18:45:44.962Z,9.25
2022-08-05T18:48:51.927Z,13.73
2022-08-05T18:52:13.960Z,14.90
2022-08-05T18:55:17.849Z,14.67
2022-08-05T18:58:28.552Z,13.13
2022-08-05T19:01:33.358Z,14.57
2022-08-05T19:05:02.900Z,11.60
2022-08-05T19:08:38.332Z,12.87
2022-08-05T19:12:00.986Z,14.00
2022-08-05T19:15:04.711Z,12.30
2022-08-05T19:18:10.709Z,10.30
2022-08-05T19:21:16.737Z,13.70
2022-08-05T19:24:34.806Z,16.23
2022-08-05T19:27:38.084Z,14.23
2022-08-05T19:30:44.728Z,15.95
2022-08-05T19:33:56.583Z,12.93
2022-08-05T19:37:00.053Z,13.73
2022-08-05T19:40:03.305Z,12.20
2022-08-05T19:43:31.255Z,16.17
2022-08-05T19:46:39.522Z,16.10
2022-08-05T19:49:42.552Z,12.73
2022-08-05T19:52:48.092Z,13.30
2022-08-05T19:56:12.454Z,11.37
2022-08-05T19:59:53.831Z,18.13
2022-08-05T20:02:37.050Z,16.20
2022-08-05T20:05:43.280Z,12.50
2022-08-05T20:08:53.088Z,16.48
2022-08-05T20:11:56.756Z,18.20
2022-08-05T20:15:00.707Z,19.50
2022-08-05T20:18:04.439Z,15.10
2022-08-05T20:21:15.176Z,15.57
2022-08-05T20:24:21.863Z,17.45
2022-08-05T20:27:27.370Z,14.20
2022-08-05T20:30:44.967Z,16.47
2022-08-05T20:33:48.154Z,15.90
2022-08-05T20:36:52.491Z,16.58
2022-08-05T20:39:55.779Z,17.60
2022-08-05T20:43:03.752Z,17.70
2022-08-05T20:46:07.077Z,15.60
2022-08-05T20:49:10.061Z,15.02
2022-08-05T20:52:15.496Z,15.82
2022-08-05T20:55:54.759Z,16.08
2022-08-05T20:58:43.491Z,13.23
2022-08-05T21:01:46.621Z,12.03
2022-08-05T21:04:50.297Z,13.43
2022-08-05T21:07:54.705Z,12.48
2022-08-05T21:10:58.882Z,12.90
2022-08-05T21:14:03.382Z,13.07
2022-08-05T21:17:08.676Z,13.00
2022-08-05T21:20:11.855Z,12.73
2022-08-05T21:23:15.050Z,11.50
2022-08-05T21:26:18.491Z,12.48
2022-08-05T21:29:23.573Z,13.30
2022-08-05T21:32:29.940Z,11.73
2022-08-05T21:35:55.827Z,9.63
2022-08-05T21:38:57.222Z,11.15
2022-08-05T21:42:02.417Z,11.98
2022-08-05T21:45:06.239Z,12.00
2022-08-05T21:48:14.085Z,11.47
2022-08-05T21:52:16.192Z,10.55
2022-08-05T21:54:41.404Z,13.00
2022-08-05T21:57:44.673Z,11.40
2022-08-05T22:00:51.201Z,11.30
2022-08-05T22:03:54.760Z,11.93
2022-08-05T22:06:59.110Z,11.38
2022-08-05T22:10:02.093Z,13.82
2022-08-05T22:13:08.815Z,13.55
2022-08-05T22:16:41.786Z,12.27
2022-08-05T22:20:00.541Z,13.77
2022-08-05T22:24:03.227Z,13.05
2022-08-05T22:27:10.941Z,12.20
2022-08-05T22:30:19.726Z,11.98
2022-08-05T22:33:55.907Z,11.87
2022-08-05T22:36:45.961Z,10.90
2022-08-05T22:39:51.256Z,10.80
2022-08-05T22:42:58.471Z,10.55
2022-08-05T22:46:04.629Z,12.20
2022-08-05T22:49:46.245Z,12.87
2022-08-05T22:52:36.228Z,10.83
2022-08-05T22:55:57.367Z,13.00
2022-08-05T22:59:04.013Z,9.75
2022-08-05T23:02:29.402Z,10.18
2022-08-05T23:05:33.042Z,13.00
2022-08-05T23:08:39.190Z,9.77
2022-08-05T23:11:46.694Z,13.02
2022-08-05T23:14:53.227Z,10.93
2022-08-05T23:18:01.757Z,12.13
2022-08-05T23:21:06.316Z,13.23
2022-08-05T23:24:13.293Z,10.97
2022-08-05T23:27:16.636Z,11.27
2022-08-05T23:30:27.177Z,13.00
2022-08-05T23:34:03.048Z,11.23
2022-08-05T23:36:56.337Z,12.33
2022-08-05T23:40:02.261Z,10.27
2022-08-05T23:43:24.358Z,11.63
2022-08-05T23:46:33.840Z,11.05
2022-08-05T23:49:40.496Z,10.40
2022-08-05T23:52:49.704Z,12.57
2022-08-05T23:55:53.697Z,11.13
2022-08-05T23:58:58.662Z,13.63
